Flight Track Log - Related Links

Times and Time Zones

All times are in EDT time to prevent confusion due to time zone crossing. See the DAL268 flight status page for this flight to view local times or setup timezone preferences in your user account.

Time Position Orientation Groundspeed Altitude Reporting Facility
EDT Latitude Longitude Course Direction KTS MPH feet Rate Location/Type
Wed 02:20:51 PM 37.6160 -122.3810 199° South  Level FlightAware ADS-B
Wed 02:23:00 PM 37.8109 -122.1725 38° Northeast  Level FlightAware Approximate
Wed 02:24:00 PM 37.9054 -122.0780 38° Northeast  Level FlightAware Approximate
Wed 02:26:00 PM 37.7748 -122.2086 38° Northeast  Level FlightAware Approximate
Wed 02:30:00 PM 37.7984 -122.1850 38° Northeast  Level FlightAware Approximate
Wed 02:31:00 PM 37.8929 -122.0904 38° Northeast  Level FlightAware Approximate
Wed 02:32:00 PM 37.9833 -121.9933 90° East  Level FlightAware Approximate
Wed 02:33:36 PM 37.6060 -122.3820 90° East  Level FlightAware ADS-B
Wed 02:36:41 PM 37.6170 -122.3740 28° Northeast 150 173 176 Level FlightAware ADS-B
Wed 02:37:01 PM 37.6310 -122.3640 29° Northeast 170 196 600 1,929 Climbing FlightAware ADS-B
Wed 02:37:09 PM 37.6360 -122.3600 32° Northeast 174 200 900 2,455 Climbing FlightAware ADS-B
Wed 02:37:23 PM 37.6439 -122.3480 50° Northeast 186 214 1,500 1,935 Climbing FlightAware ADS-B
Wed 02:37:40 PM 37.6540 -122.3330 50° Northeast 202 232 1,900 1,440 Climbing FlightAware ADS-B
Wed 02:37:48 PM 37.6594 -122.3240 53° Northeast 223 257 2,100 1,826 Climbing FlightAware ADS-B
Wed 02:38:03 PM 37.6688 -122.3090 52° Northeast 237 273 2,600 2,160 Climbing FlightAware ADS-B
Wed 02:38:13 PM 37.6758 -122.2970 54° Northeast 247 284 3,000 2,339 Climbing FlightAware ADS-B
Wed 02:39:02 PM 37.7150 -122.2410 48° Northeast 276 318 4,900 2,486 Climbing FlightAware ADS-B
Wed 02:39:23 PM 37.7330 -122.2160 48° Northeast 278 320 5,900 2,903 Climbing FlightAware ADS-B
Wed 02:39:33 PM 37.7422 -122.2030 48° Northeast 280 322 6,400 3,000 Climbing FlightAware ADS-B
Wed 02:39:49 PM 37.7570 -122.1830 47° Northeast 282 325 7,200 2,889 Climbing FlightAware ADS-B
Wed 02:40:00 PM 37.7673 -122.1700 45° Northeast 285 328 7,700 2,647 Climbing FlightAware ADS-B
Wed 02:40:23 PM 37.7909 -122.1470 38° Northeast 291 335 8,700 2,138 Climbing FlightAware ADS-B
Wed 02:41:27 PM 37.8640 -122.0810 35° Northeast 326 375 10,800 1,852 Climbing FlightAware ADS-B
Wed 02:41:44 PM 37.8851 -122.0620 35° Northeast 343 395 11,200 1,277 Climbing FlightAware ADS-B
Wed 02:42:14 PM 37.9263 -122.0250 35° Northeast 370 426 11,800 1,955 Climbing FlightAware ADS-B
Wed 02:43:13 PM 38.0110 -121.9480 36° Northeast 386 444 14,100 2,400 Climbing FlightAware ADS-B
Wed 02:43:49 PM 38.0620 -121.9020 35° Northeast 389 448 15,600 2,366 Climbing FlightAware ADS-B
Wed 02:44:24 PM 38.1150 -121.8530 36° Northeast 398 458 16,900 2,149 Climbing FlightAware ADS-B
Wed 02:44:56 PM 38.1610 -121.8110 36° Northeast 402 463 18,000 2,029 Climbing FlightAware ADS-B
Wed 02:45:32 PM 38.2180 -121.7590 36° Northeast 408 470 19,200 1,917 Climbing FlightAware ADS-B
Wed 02:46:08 PM 38.2740 -121.7080 36° Northeast 416 479 20,300 1,886 Climbing FlightAware ADS-B
Wed 02:46:42 PM 38.3260 -121.6600 36° Northeast 416 479 21,400 1,859 Climbing FlightAware ADS-B
Wed 02:47:19 PM 38.3840 -121.6070 36° Northeast 421 484 22,500 1,583 Climbing FlightAware ADS-B
Wed 02:47:54 PM 38.4380 -121.5520 39° Northeast 431 496 23,300 1,433 Climbing FlightAware ADS-B
Wed 02:48:26 PM 38.4790 -121.4920 49° Northeast 436 502 24,100 1,412 Climbing FlightAware ADS-B
Wed 02:49:02 PM 38.5240 -121.4160 53° Northeast 443 510 24,900 1,378 Climbing FlightAware ADS-B
Wed 02:49:40 PM 38.5710 -121.3340 54° Northeast 449 517 25,800 1,286 Climbing FlightAware ADS-B
Wed 02:50:12 PM 38.6100 -121.2660 54° Northeast 454 522 26,400 1,147 Climbing FlightAware ADS-B
Wed 02:50:48 PM 38.6540 -121.1900 53° Northeast 459 528 27,100 1,250 Climbing FlightAware ADS-B
Wed 02:51:24 PM 38.7010 -121.1080 54° Northeast 461 531 27,900 1,167 Climbing FlightAware ADS-B
Wed 02:52:00 PM 38.7470 -121.0300 53° Northeast 464 534 28,500 1,147 Climbing FlightAware ADS-B
Wed 02:52:32 PM 38.7880 -120.9590 53° Northeast 464 534 29,200 1,391 Climbing FlightAware ADS-B
Wed 02:53:09 PM 38.8330 -120.8800 54° Northeast 460 529 30,100 1,457 Climbing FlightAware ADS-B
Wed 02:53:42 PM 38.8770 -120.8050 53° Northeast 455 524 30,900 1,478 Climbing FlightAware ADS-B
Wed 02:54:18 PM 38.9210 -120.7290 53° Northeast 451 519 31,800 1,437 Climbing FlightAware ADS-B
Wed 02:54:53 PM 38.9630 -120.6550 54° Northeast 449 517 32,600 1,371 Climbing FlightAware ADS-B
Wed 02:55:28 PM 39.0060 -120.5810 53° Northeast 444 511 33,400 1,522 Climbing FlightAware ADS-B
Wed 02:56:00 PM 39.0460 -120.5110 54° Northeast 438 504 34,300 1,455 Climbing FlightAware ADS-B
Wed 02:56:34 PM 39.0870 -120.4400 53° Northeast 435 501 35,000 1,167 Climbing FlightAware ADS-B
Wed 02:57:12 PM 39.1320 -120.3620 53° Northeast 432 497 35,700 1,054 Climbing FlightAware ADS-B
Wed 02:57:48 PM 39.1730 -120.2900 54° Northeast 430 495 36,300 833 Climbing FlightAware ADS-B
Wed 02:58:24 PM 39.2170 -120.2130 54° Northeast 435 501 36,700 618 Climbing FlightAware ADS-B
Wed 02:58:56 PM 39.2550 -120.1450 54° Northeast 438 504 37,000 265 Climbing FlightAware ADS-B
Wed 02:59:32 PM 39.2990 -120.0690 53° Northeast 439 505 37,000  Level FlightAware ADS-B
Wed 03:00:06 PM 39.3400 -119.9970 54° Northeast 438 504 37,000  Level FlightAware ADS-B
Wed 03:00:42 PM 39.3820 -119.9220 54° Northeast 437 503 37,000  Level FlightAware ADS-B
Wed 03:01:18 PM 39.4250 -119.8450 54° Northeast 434 499 37,000  Level FlightAware ADS-B
Wed 03:01:53 PM 39.4650 -119.7730 54° Northeast 433 498 37,000  Level FlightAware ADS-B
Wed 03:02:30 PM 39.5090 -119.6960 53° Northeast 431 496 37,000  Level FlightAware ADS-B
Wed 03:03:02 PM 39.5470 -119.6280 54° Northeast 431 496 37,000  Level FlightAware ADS-B
Wed 03:03:38 PM 39.5890 -119.5530 54° Northeast 429 494 37,000  Level FlightAware ADS-B
Wed 03:04:14 PM 39.6300 -119.4800 54° Northeast 429 494 37,000  Level FlightAware ADS-B
Wed 03:04:46 PM 39.6670 -119.4130 54° Northeast 430 495 37,000  Level FlightAware ADS-B
Wed 03:05:24 PM 39.7120 -119.3320 54° Northeast 430 495 37,000  Level FlightAware ADS-B
Wed 03:05:56 PM 39.7500 -119.2640 54° Northeast 429 494 37,000  Level FlightAware ADS-B
Wed 03:06:32 PM 39.7900 -119.1900 55° Northeast 430 495 37,000  Level FlightAware ADS-B
Wed 03:07:08 PM 39.8330 -119.1140 54° Northeast 430 495 37,000  Level FlightAware ADS-B
Wed 03:07:44 PM 39.8740 -119.0390 55° Northeast 430 495 37,000  Level FlightAware ADS-B
Wed 03:08:17 PM 39.9120 -118.9680 55° Northeast 430 495 37,000  Level FlightAware ADS-B
Wed 03:08:55 PM 39.9570 -118.8870 54° Northeast 430 495 37,000  Level FlightAware ADS-B
Wed 03:09:27 PM 39.9930 -118.8210 55° Northeast 432 497 37,000  Level FlightAware ADS-B
Wed 03:10:05 PM 40.0380 -118.7390 54° Northeast 434 499 37,000  Level FlightAware ADS-B
Wed 03:10:39 PM 40.0760 -118.6680 55° Northeast 436 502 37,000  Level FlightAware ADS-B
Wed 03:10:56 PM 40.0960 -118.6320 54° Northeast 438 504 37,000  Level FlightAware ADS-B
Wed 03:11:45 PM 40.1420 -118.5160 63° Northeast 438 504 37,000  Level FlightAware ADS-B
Wed 03:12:20 PM 40.1660 -118.4300 70° East 439 505 37,000  Level FlightAware ADS-B
Wed 03:12:53 PM 40.1890 -118.3460 70° East 441 507 37,000  Level FlightAware ADS-B
Wed 03:13:27 PM 40.2120 -118.2610 70° East 441 507 37,000  Level FlightAware ADS-B
Wed 03:14:05 PM 40.2380 -118.1670 70° East 441 507 37,000  Level FlightAware ADS-B
Wed 03:14:45 PM 40.2620 -118.0810 70° East 441 507 37,000  Level FlightAware ADS-B
Wed 03:15:19 PM 40.2890 -117.9810 70° East 441 507 37,000  Level FlightAware ADS-B
Wed 03:16:05 PM 40.3200 -117.8660 70° East 439 505 37,000  Level FlightAware ADS-B
Wed 03:16:45 PM 40.3470 -117.7660 70° East 439 505 37,000  Level FlightAware ADS-B
Wed 03:17:26 PM 40.3710 -117.6790 70° East 438 504 37,000  Level FlightAware ADS-B
Wed 03:18:03 PM 40.3920 -117.6010 71° East 438 504 37,000  Level FlightAware ADS-B
Wed 03:18:39 PM 40.4140 -117.5240 69° East 438 504 37,000  Level FlightAware ADS-B
Wed 03:19:17 PM 40.4360 -117.4430 70° East 438 504 37,000  Level FlightAware ADS-B
Wed 03:19:53 PM 40.4570 -117.3670 70° East 438 504 37,000  Level FlightAware ADS-B
Wed 03:20:29 PM 40.4780 -117.2900 70° East 438 504 37,000  Level FlightAware ADS-B
Wed 03:21:05 PM 40.5000 -117.2130 69° East 438 504 37,000  Level FlightAware ADS-B
Wed 03:21:42 PM 40.5210 -117.1350 70° East 438 504 37,000  Level FlightAware ADS-B
Wed 03:22:18 PM 40.5430 -117.0580 69° East 438 504 37,000  Level FlightAware ADS-B
Wed 03:22:54 PM 40.5640 -116.9810 70° East 438 504 37,000  Level FlightAware ADS-B
Wed 03:23:30 PM 40.5850 -116.9050 70° East 438 504 37,000  Level FlightAware ADS-B
Wed 03:24:06 PM 40.6060 -116.8280 70° East 438 504 37,000  Level FlightAware ADS-B
Wed 03:24:42 PM 40.6270 -116.7510 70° East 438 504 37,000  Level FlightAware ADS-B
Wed 03:25:18 PM 40.6480 -116.6740 70° East 438 504 37,000  Level FlightAware ADS-B
Wed 03:25:54 PM 40.6700 -116.5970 69° East 438 504 37,000  Level FlightAware ADS-B
Wed 03:26:30 PM 40.6910 -116.5210 70° East 438 504 37,000  Level FlightAware ADS-B
Wed 03:26:43 PM 40.8150 -116.2910 54° Northeast 453 521 37,000  Level FlightAware ADS-B
Wed 03:27:15 PM 40.8468 -116.2080 63° Northeast 453 521 37,000  Level FlightAware ADS-B
Wed 03:27:45 PM 40.8680 -116.1530 63° Northeast 454 522 37,000  Level FlightAware ADS-B
Wed 03:28:05 PM 40.8766 -116.1300 64° Northeast 454 522 37,000  Level FlightAware ADS-B
Wed 03:29:28 PM 40.9636 -115.9030 63° Northeast 454 522 37,000  Level FlightAware ADS-B
Wed 03:30:13 PM 41.0161 -115.7640 63° Northeast 454 522 37,000  Level FlightAware ADS-B
Wed 03:31:54 PM 41.0587 -115.6510 63° Northeast 455 524 37,000  Level FlightAware ADS-B
Wed 03:32:35 PM 41.1307 -115.4600 63° Northeast 457 526 37,000  Level FlightAware ADS-B
Wed 03:33:57 PM 41.2253 -115.2060 64° Northeast 457 526 37,000  Level FlightAware ADS-B
Wed 03:34:27 PM 41.2524 -115.1330 64° Northeast 458 527 37,000  Level FlightAware ADS-B
Wed 03:34:59 PM 41.2735 -115.0760 64° Northeast 458 527 37,000  Level FlightAware ADS-B
Wed 03:36:12 PM 41.3440 -114.8850 64° Northeast 458 527 37,000  Level FlightAware ADS-B
Wed 03:39:10 PM 41.5165 -114.4110 64° Northeast 462 532 37,000  Level FlightAware ADS-B
Wed 03:39:41 PM 41.5433 -114.3370 64° Northeast 462 532 37,000  Level FlightAware ADS-B
Wed 03:40:13 PM 41.5646 -114.2770 65° Northeast 462 532 37,000  Level FlightAware ADS-B
Wed 03:40:50 PM 41.5737 -114.2520 64° Northeast 462 532 37,000  Level FlightAware ADS-B
Wed 03:41:25 PM 41.6420 -114.0610 64° Northeast 463 533 37,000  Level FlightAware ADS-B
Wed 03:42:10 PM 41.6780 -113.9610 64° Northeast 463 533 37,000  Level FlightAware ADS-B
Wed 03:42:27 PM 41.6642 -113.9990 244° Southwest 464 534 37,000  Level FlightAware ADS-B
Wed 03:42:58 PM 41.7249 -113.8280 65° Northeast 464 534 37,000  Level FlightAware ADS-B
Wed 03:43:55 PM 41.7800 -113.6730 64° Northeast 464 534 37,000  Level FlightAware ADS-B
Wed 03:44:21 PM 41.8018 -113.6090 65° Northeast 464 534 37,000  Level FlightAware ADS-B
Wed 03:45:07 PM 41.8450 -113.4860 65° Northeast 464 534 37,000  Level FlightAware ADS-B
Wed 03:45:15 PM 41.8498 -113.4720 65° Northeast 465 535 37,000  Level FlightAware ADS-B
Wed 03:46:17 PM 41.9080 -113.3060 65° Northeast 466 536 37,000  Level FlightAware ADS-B
Wed 03:46:48 PM 41.9042 -113.3160 243° Southwest 467 537 37,000  Level FlightAware ADS-B
Wed 03:47:22 PM 41.9660 -113.1380 65° Northeast 469 540 37,000  Level FlightAware ADS-B
Wed 03:47:57 PM 41.9861 -113.0790 65° Northeast 469 540 37,000  Level FlightAware ADS-B
Wed 03:48:43 PM 42.0410 -112.9190 65° Northeast 471 542 37,000  Level FlightAware ADS-B
Wed 03:49:21 PM 42.0760 -112.8160 65° Northeast 471 542 37,000  Level FlightAware ADS-B
Wed 03:49:53 PM 42.1050 -112.7320 65° Northeast 472 543 37,000  Level FlightAware ADS-B
Wed 03:50:29 PM 42.1360 -112.6390 66° East 473 544 37,000  Level FlightAware ADS-B
Wed 03:51:01 PM 42.1660 -112.5510 65° Northeast 473 544 37,000  Level FlightAware ADS-B
Wed 03:52:01 PM 42.2210 -112.3880 65° Northeast 474 545 37,000  Level FlightAware ADS-B
Wed 03:52:36 PM 42.2489 -112.3020 66° East 474 545 37,000  Level FlightAware ADS-B
Wed 03:53:13 PM 42.2840 -112.1950 66° East 475 547 37,000  Level FlightAware ADS-B
Wed 03:53:47 PM 42.3140 -112.1020 66° East 475 547 37,000  Level FlightAware ADS-B
Wed 03:54:09 PM 42.3240 -112.0710 66° East 475 547 37,000  Level FlightAware ADS-B
Wed 03:54:39 PM 42.3572 -111.9680 66° East 476 548 37,000  Level FlightAware ADS-B
Wed 03:55:11 PM 42.3757 -111.9110 66° East 476 548 37,000  Level FlightAware ADS-B
Wed 03:56:15 PM 42.4260 -111.7600 66° East 475 547 37,000  Level FlightAware ADS-B
Wed 03:56:32 PM 42.4510 -111.6770 68° East 478 550 37,000  Level FlightAware ADS-B
Wed 03:57:02 PM 42.4850 -111.5700 67° East 479 551 37,000  Level FlightAware ADS-B
Wed 03:57:40 PM 42.5172 -111.4690 67° East 479 551 37,000  Level FlightAware ADS-B
Wed 03:58:40 PM 42.5670 -111.3150 66° East 479 551 37,000  Level FlightAware ADS-B
Wed 03:59:16 PM 42.5940 -111.2310 66° East 479 551 37,000  Level FlightAware ADS-B
Wed 03:59:53 PM 42.6220 -111.1440 66° East 479 551 37,000  Level FlightAware ADS-B
Wed 04:00:29 PM 42.6500 -111.0600 66° East 479 551 37,000  Level FlightAware ADS-B
Wed 04:01:05 PM 42.6780 -110.9760 66° East 479 551 37,000  Level FlightAware ADS-B
Wed 04:01:41 PM 42.7050 -110.8920 66° East 479 551 37,000  Level FlightAware ADS-B
Wed 04:02:18 PM 42.7340 -110.8050 66° East 479 551 37,000  Level FlightAware ADS-B
Wed 04:02:55 PM 42.7620 -110.7180 66° East 479 551 37,000  Level FlightAware ADS-B
Wed 04:03:33 PM 42.7910 -110.6290 66° East 479 551 37,000  Level FlightAware ADS-B
Wed 04:04:09 PM 42.8190 -110.5450 66° East 479 551 37,000  Level FlightAware ADS-B
Wed 04:04:45 PM 42.8460 -110.4600 67° East 479 551 37,000  Level FlightAware ADS-B
Wed 04:05:21 PM 42.8740 -110.3760 66° East 479 551 37,000  Level FlightAware ADS-B
Wed 04:05:57 PM 42.9010 -110.2910 67° East 479 551 37,000  Level FlightAware ADS-B
Wed 04:06:33 PM 42.9290 -110.2070 65° Northeast 479 551 37,000  Level FlightAware ADS-B
Wed 04:07:09 PM 42.9560 -110.1220 67° East 479 551 37,000  Level FlightAware ADS-B
Wed 04:07:46 PM 42.9850 -110.0350 65° Northeast 479 551 37,000  Level FlightAware ADS-B
Wed 04:08:35 PM 43.0769 -109.6422 65° Northeast 479 551 37,000  Level Salt Lake Center
Wed 04:09:37 PM 43.1272 -109.4714 68° East 484 557 37,000  Level Salt Lake Center
Wed 04:10:39 PM 43.1767 -109.3011 68° East 484 557 37,000  Level Salt Lake Center
Wed 04:11:41 PM 43.2267 -109.1317 68° East 483 556 37,000  Level Salt Lake Center
Wed 04:12:43 PM 43.2761 -108.9603 68° East 485 558 37,000  Level Salt Lake Center
Wed 04:18:08 PM 43.5560 -107.9880 68° East 492 566 37,000  Level FlightAware ADS-B
Wed 04:18:50 PM 43.5870 -107.8880 67° East 492 566 37,000  Level FlightAware ADS-B
Wed 04:19:26 PM 43.6140 -107.7990 67° East 492 566 37,000  Level FlightAware ADS-B
Wed 04:20:02 PM 43.6410 -107.7100 67° East 492 566 37,000  Level FlightAware ADS-B
Wed 04:20:36 PM 43.6800 -107.5620 70° East 490 564 37,000  Level FlightAware ADS-B
Wed 04:21:11 PM 43.7070 -107.4710 68° East 491 565 37,000  Level FlightAware ADS-B
Wed 04:21:47 PM 43.7370 -107.3650 69° East 491 565 37,000  Level FlightAware ADS-B
Wed 04:22:18 PM 43.7660 -107.2640 68° East 491 565 37,000  Level FlightAware ADS-B
Wed 04:22:52 PM 43.7950 -107.1630 68° East 491 565 37,000  Level FlightAware ADS-B
Wed 04:23:26 PM 43.8210 -107.0720 68° East 491 565 37,000  Level FlightAware ADS-B
Wed 04:24:04 PM 43.8490 -106.9780 68° East 491 565 37,000  Level FlightAware ADS-B
Wed 04:24:19 PM 43.8650 -106.9090 72° East 488 562 37,000  Level FlightAware ADS-B
Wed 04:25:01 PM 43.8840 -106.8030 76° East 487 560 37,000  Level FlightAware ADS-B
Wed 04:25:37 PM 43.9010 -106.7100 76° East 487 560 37,000  Level FlightAware ADS-B
Wed 04:26:14 PM 43.9180 -106.6150 76° East 487 560 37,000  Level FlightAware ADS-B
Wed 04:26:50 PM 43.9350 -106.5220 76° East 487 560 37,000  Level FlightAware ADS-B
Wed 04:27:28 PM 43.9520 -106.4240 76° East 487 560 37,000  Level FlightAware ADS-B
Wed 04:28:04 PM 43.9690 -106.3310 76° East 487 560 37,000  Level FlightAware ADS-B
Wed 04:28:41 PM 43.9860 -106.2360 76° East 487 560 37,000  Level FlightAware ADS-B
Wed 04:29:18 PM 44.0030 -106.1400 76° East 487 560 37,000  Level FlightAware ADS-B
Wed 04:29:52 PM 44.0190 -106.0520 76° East 487 560 37,000  Level FlightAware ADS-B
Wed 04:30:28 PM 44.0360 -105.9590 76° East 487 560 37,000  Level FlightAware ADS-B
Wed 04:31:05 PM 44.0530 -105.8630 76° East 487 560 37,000  Level FlightAware ADS-B
Wed 04:31:41 PM 44.0690 -105.7700 77° East 487 560 37,000  Level FlightAware ADS-B
Wed 04:32:17 PM 44.0860 -105.6770 76° East 487 560 37,000  Level FlightAware ADS-B
Wed 04:32:53 PM 44.1030 -105.5840 76° East 487 560 37,000  Level FlightAware ADS-B
Wed 04:33:40 PM 44.1250 -105.4620 76° East 487 560 37,000  Level FlightAware ADS-B
Wed 04:34:16 PM 44.1410 -105.3690 76° East 487 560 37,000  Level FlightAware ADS-B
Wed 04:35:24 PM 44.1036 -104.8544 76° East 502 578 37,000  Level Salt Lake Center
Wed 04:36:26 PM 44.1217 -104.6683 82° East 505 581 37,000  Level Salt Lake Center
Wed 04:37:28 PM 44.1444 -104.4511 82° East 507 583 37,000  Level Salt Lake Center
Wed 04:38:30 PM 44.1619 -104.2647 82° East 507 583 37,000  Level Salt Lake Center
Wed 04:39:31 PM 44.1828 -104.0467 82° East 508 585 37,000  Level Salt Lake Center
Wed 04:40:55 PM 44.2056 -103.8000 83° East 510 587 37,000  Level Denver Center
Wed 04:41:57 PM 44.2267 -103.5800 82° East 512 589 37,000 290 Level Denver Center
Wed 04:42:59 PM 44.2433 -103.3914 83° East 512 589 37,600 774 Climbing Denver Center
Wed 04:44:01 PM 44.2647 -103.1772 82° East 504 580 38,600 677 Climbing Denver Center
Wed 04:45:03 PM 44.2808 -102.9811 83° East 506 582 39,000 192 Climbing Denver Center
Wed 04:46:06 PM 44.2975 -102.7847 83° East 509 586 39,000  Level Denver Center
Wed 04:47:08 PM 44.3133 -102.5872 84° East 512 589 39,000  Level Denver Center
Wed 04:48:10 PM 44.3292 -102.3900 84° East 513 590 39,000  Level Denver Center
Wed 04:49:12 PM 44.3492 -102.1511 83° East 517 595 39,000  Level Denver Center
Wed 04:50:14 PM 44.3619 -101.9533 85° East 514 592 39,000  Level Denver Center
Wed 04:51:16 PM 44.3753 -101.7522 85° East 518 596 39,000  Level Denver Center
Wed 04:52:12 PM 44.3897 -101.5542 84° East 517 595 39,000  Level Minneapolis Center
Wed 04:53:14 PM 44.4044 -101.3544 84° East 517 595 39,000  Level Minneapolis Center
Wed 04:54:16 PM 44.4183 -101.1553 84° East 517 595 39,000  Level Minneapolis Center
Wed 04:55:18 PM 44.4319 -100.9550 84° East 518 596 39,000  Level Minneapolis Center
Wed 04:56:20 PM 44.4453 -100.7539 85° East 520 598 39,000  Level Minneapolis Center
Wed 04:57:34 PM 44.4608 -100.5136 85° East 521 600 39,000  Level Minneapolis Center
Wed 04:58:37 PM 44.4728 -100.2711 86° East 523 602 39,000  Level Minneapolis Center
Wed 04:59:41 PM 44.4822 -100.0678 86° East 526 605 39,000  Level Minneapolis Center
Wed 05:00:43 PM 44.4931 -99.8664 86° East 526 605 39,000  Level Minneapolis Center
Wed 05:01:45 PM 44.5047 -99.6231 86° East 526 605 39,000  Level Minneapolis Center
Wed 05:07:43 PM 44.5540 -98.3910 86° East 531 611 39,000  Level FlightAware ADS-B
Wed 05:08:22 PM 44.5590 -98.2750 86° East 531 611 39,000  Level FlightAware ADS-B
Wed 05:09:01 PM 44.5630 -98.1250 88° East 530 610 39,000  Level FlightAware ADS-B
Wed 05:09:49 PM 44.5680 -97.9620 87° East 531 611 39,000  Level FlightAware ADS-B
Wed 05:10:21 PM 44.5710 -97.8520 88° East 532 612 39,000  Level FlightAware ADS-B
Wed 05:10:57 PM 44.5750 -97.7300 87° East 532 612 39,000  Level FlightAware ADS-B
Wed 05:11:38 PM 44.5790 -97.6010 87° East 532 612 39,000  Level FlightAware ADS-B
Wed 05:12:09 PM 44.5820 -97.4810 88° East 533 613 39,000  Level FlightAware ADS-B
Wed 05:12:53 PM 44.5860 -97.3400 88° East 533 613 39,000  Level FlightAware ADS-B
Wed 05:13:41 PM 44.5890 -97.1750 88° East 533 613 39,000  Level FlightAware ADS-B
Wed 05:14:15 PM 44.5920 -97.0440 88° East 533 613 39,000  Level FlightAware ADS-B
Wed 05:14:47 PM 44.5950 -96.9370 88° East 533 613 39,000  Level FlightAware ADS-B
Wed 05:15:24 PM 44.5970 -96.8110 89° East 533 613 39,000  Level FlightAware ADS-B
Wed 05:15:56 PM 44.6000 -96.6960 88° East 534 615 39,000  Level FlightAware ADS-B
Wed 05:16:33 PM 44.6020 -96.5740 89° East 535 616 39,000  Level FlightAware ADS-B
Wed 05:17:08 PM 44.6040 -96.4480 89° East 535 616 39,000  Level FlightAware ADS-B
Wed 05:17:42 PM 44.6060 -96.3370 89° East 535 616 39,000  Level FlightAware ADS-B
Wed 05:18:20 PM 44.6080 -96.1970 89° East 535 616 39,000  Level FlightAware ADS-B
Wed 05:18:56 PM 44.6100 -96.0750 89° East 534 615 39,000  Level FlightAware ADS-B
Wed 05:19:28 PM 44.6110 -95.9630 89° East 533 613 39,000  Level FlightAware ADS-B
Wed 05:20:02 PM 44.6130 -95.8460 89° East 532 612 39,000  Level FlightAware ADS-B
Wed 05:20:40 PM 44.6140 -95.7150 89° East 532 612 39,000  Level FlightAware ADS-B
Wed 05:21:10 PM 44.6150 -95.6120 89° East 532 612 39,000  Level FlightAware ADS-B
Wed 05:21:48 PM 44.6170 -95.4810 89° East 531 611 39,000  Level FlightAware ADS-B
Wed 05:22:24 PM 44.6180 -95.3580 89° East 529 609 39,000  Level FlightAware ADS-B
Wed 05:23:00 PM 44.6180 -95.2360 90° East 530 610 39,000  Level FlightAware ADS-B
Wed 05:23:36 PM 44.6190 -95.1110 89° East 530 610 39,000  Level FlightAware ADS-B
Wed 05:24:07 PM 44.6200 -95.0070 89° East 530 610 39,000  Level FlightAware ADS-B
Wed 05:24:44 PM 44.6200 -94.8810 90° East 530 610 39,000  Level FlightAware ADS-B
Wed 05:25:20 PM 44.6200 -94.7550 90° East 530 610 39,000  Level FlightAware ADS-B
Wed 05:25:53 PM 44.6210 -94.6440 89° East 530 610 39,000  Level FlightAware ADS-B
Wed 05:26:27 PM 44.6210 -94.5250 90° East 530 610 39,000  Level FlightAware ADS-B
Wed 05:27:04 PM 44.6210 -94.3980 90° East 530 610 39,000  Level FlightAware ADS-B
Wed 05:27:38 PM 44.6210 -94.2810 90° East 530 610 39,000  Level FlightAware ADS-B
Wed 05:28:15 PM 44.6200 -94.1590 91° East 530 610 39,000  Level FlightAware ADS-B
Wed 05:28:50 PM 44.6200 -94.0350 90° East 530 610 39,000  Level FlightAware ADS-B
Wed 05:29:24 PM 44.6190 -93.9180 91° East 530 610 39,000  Level FlightAware ADS-B
Wed 05:29:59 PM 44.6190 -93.7990 90° East 530 610 39,000  Level FlightAware ADS-B
Wed 05:30:34 PM 44.6180 -93.6780 91° East 529 609 39,000  Level FlightAware ADS-B
Wed 05:31:13 PM 44.6170 -93.5660 91° East 529 609 39,000  Level FlightAware ADS-B
Wed 05:31:50 PM 44.6160 -93.4170 90° East 528 608 39,000  Level FlightAware ADS-B
Wed 05:32:26 PM 44.6140 -93.2950 91° East 528 608 39,000  Level FlightAware ADS-B
Wed 05:33:03 PM 44.6130 -93.1720 91° East 529 609 39,000  Level FlightAware ADS-B
Wed 05:33:34 PM 44.6120 -93.0640 91° East 531 611 39,000  Level FlightAware ADS-B
Wed 05:34:08 PM 44.6100 -92.9480 91° East 531 611 39,000  Level FlightAware ADS-B
Wed 05:34:45 PM 44.6080 -92.8210 91° East 531 611 39,000  Level FlightAware ADS-B
Wed 05:35:17 PM 44.6070 -92.7140 91° East 531 611 39,000  Level FlightAware ADS-B
Wed 05:36:04 PM 44.6040 -92.5510 91° East 531 611 39,000  Level FlightAware ADS-B
Wed 05:36:40 PM 44.6020 -92.4230 91° East 530 610 39,000  Level FlightAware ADS-B
Wed 05:37:12 PM 44.6000 -92.3140 91° East 531 611 39,000  Level FlightAware ADS-B
Wed 05:37:49 PM 44.5970 -92.1870 92° East 531 611 39,000  Level FlightAware ADS-B
Wed 05:38:21 PM 44.5950 -92.0780 91° East 532 612 39,000  Level FlightAware ADS-B
Wed 05:38:58 PM 44.5920 -91.9510 92° East 532 612 39,000  Level FlightAware ADS-B
Wed 05:39:33 PM 44.5900 -91.8300 91° East 533 613 39,000  Level FlightAware ADS-B
Wed 05:40:09 PM 44.5870 -91.7100 92° East 533 613 39,000  Level FlightAware ADS-B
Wed 05:40:42 PM 44.5840 -91.5940 92° East 533 613 39,000  Level FlightAware ADS-B
Wed 05:41:15 PM 44.5810 -91.4840 92° East 533 613 39,000  Level FlightAware ADS-B
Wed 05:41:53 PM 44.5770 -91.3480 92° East 532 612 39,000  Level FlightAware ADS-B
Wed 05:42:29 PM 44.5740 -91.2220 92° East 532 612 39,000  Level FlightAware ADS-B
Wed 05:43:01 PM 44.5710 -91.1130 92° East 532 612 39,000  Level FlightAware ADS-B
Wed 05:43:37 PM 44.5670 -90.9880 93° East 532 612 39,000  Level FlightAware ADS-B
Wed 05:44:13 PM 44.5630 -90.8650 93° East 531 611 39,000  Level FlightAware ADS-B
Wed 05:44:45 PM 44.5600 -90.7540 92° East 532 612 39,000  Level FlightAware ADS-B
Wed 05:45:25 PM 44.5550 -90.6190 93° East 532 612 39,000  Level FlightAware ADS-B
Wed 05:45:57 PM 44.5510 -90.5090 93° East 532 612 39,000  Level FlightAware ADS-B
Wed 05:46:33 PM 44.5470 -90.3840 93° East 531 611 39,000  Level FlightAware ADS-B
Wed 05:47:09 PM 44.5420 -90.2620 93° East 531 611 39,000  Level FlightAware ADS-B
Wed 05:47:44 PM 44.5380 -90.1420 93° East 530 610 39,000  Level FlightAware ADS-B
Wed 05:48:16 PM 44.5330 -90.0340 94° East 530 610 39,000  Level FlightAware ADS-B
Wed 05:48:55 PM 44.5280 -89.8980 93° East 530 610 39,000  Level FlightAware ADS-B
Wed 05:49:27 PM 44.5230 -89.7870 94° East 529 609 39,000  Level FlightAware ADS-B
Wed 05:50:04 PM 44.5180 -89.6640 93° East 528 608 39,000  Level FlightAware ADS-B
Wed 05:50:35 PM 44.5140 -89.5570 93° East 527 606 39,000  Level FlightAware ADS-B
Wed 05:51:11 PM 44.5090 -89.4440 94° East 527 606 39,000  Level FlightAware ADS-B
Wed 05:51:45 PM 44.5030 -89.3220 94° East 527 606 39,000  Level FlightAware ADS-B
Wed 05:52:24 PM 44.4970 -89.1890 94° East 525 604 39,000  Level FlightAware ADS-B
Wed 05:52:59 PM 44.4920 -89.0700 93° East 525 604 39,000  Level FlightAware ADS-B
Wed 05:53:32 PM 44.4860 -88.9590 94° East 523 602 39,000  Level FlightAware ADS-B
Wed 05:54:08 PM 44.4800 -88.8370 94° East 522 601 39,000  Level FlightAware ADS-B
Wed 05:54:44 PM 44.4740 -88.7190 94° East 521 600 39,000  Level FlightAware ADS-B
Wed 05:55:17 PM 44.4690 -88.6120 94° East 522 601 39,000  Level FlightAware ADS-B
Wed 05:55:54 PM 44.4620 -88.4850 94° East 522 601 39,000  Level FlightAware ADS-B
Wed 05:56:24 PM 44.4590 -88.4330 95° East 521 600 39,000  Level FlightAware ADS-B
Wed 05:57:01 PM 44.4500 -88.2560 94° East 520 598 39,000  Level FlightAware ADS-B
Wed 05:57:37 PM 44.4430 -88.1400 95° East 521 600 39,000  Level FlightAware ADS-B
Wed 05:58:15 PM 44.4360 -88.0120 94° East 521 600 39,000  Level FlightAware ADS-B
Wed 05:58:43 PM 44.4310 -87.9150 94° East 520 598 39,000  Level FlightAware ADS-B
Wed 05:59:24 PM 44.4230 -87.7800 95° East 520 598 39,000  Level FlightAware ADS-B
Wed 05:59:59 PM 44.4170 -87.6680 94° East 520 598 39,000  Level FlightAware ADS-B
Wed 06:00:27 PM 44.4140 -87.5680 92° East 520 598 39,000  Level FlightAware ADS-B
Wed 06:01:07 PM 44.4120 -87.4360 91° East 520 598 39,000  Level FlightAware ADS-B
Wed 06:01:44 PM 44.4100 -87.3160 91° East 520 598 39,000  Level FlightAware ADS-B
Wed 06:02:25 PM 44.4090 -87.1690 90° East 520 598 39,000  Level FlightAware ADS-B
Wed 06:03:01 PM 44.4080 -87.0520 91° East 520 598 39,000  Level FlightAware ADS-B
Wed 06:03:33 PM 44.4070 -86.9440 91° East 519 597 39,000  Level FlightAware ADS-B
Wed 06:04:05 PM 44.4060 -86.8400 91° East 519 597 39,000  Level FlightAware ADS-B
Wed 06:04:45 PM 44.4040 -86.7050 91° East 518 596 39,000  Level FlightAware ADS-B
Wed 06:05:17 PM 44.4020 -86.5940 91° East 517 595 39,000  Level FlightAware ADS-B
Wed 06:05:59 PM 44.4000 -86.4620 91° East 517 595 39,000  Level FlightAware ADS-B
Wed 06:06:38 PM 44.3980 -86.3240 91° East 517 595 39,000  Level FlightAware ADS-B
Wed 06:07:10 PM 44.3960 -86.2190 91° East 517 595 39,000  Level FlightAware ADS-B
Wed 06:07:47 PM 44.3930 -86.0930 92° East 518 596 39,000  Level FlightAware ADS-B
Wed 06:08:20 PM 44.3910 -85.9850 91° East 518 596 39,000  Level FlightAware ADS-B
Wed 06:08:56 PM 44.3880 -85.8630 92° East 519 597 39,000  Level FlightAware ADS-B
Wed 06:09:33 PM 44.3850 -85.7410 92° East 520 598 39,000  Level FlightAware ADS-B
Wed 06:10:06 PM 44.3830 -85.6290 91° East 520 598 39,000  Level FlightAware ADS-B
Wed 06:10:42 PM 44.3800 -85.5090 92° East 520 598 39,000  Level FlightAware ADS-B
Wed 06:11:17 PM 44.3770 -85.3900 92° East 520 598 39,000  Level FlightAware ADS-B
Wed 06:11:52 PM 44.3730 -85.2750 93° East 521 600 39,000  Level FlightAware ADS-B
Wed 06:12:29 PM 44.3700 -85.1530 92° East 522 601 39,000  Level FlightAware ADS-B
Wed 06:13:01 PM 44.3670 -85.0470 92° East 521 600 39,000  Level FlightAware ADS-B
Wed 06:13:35 PM 44.3630 -84.9280 93° East 519 597 39,000  Level FlightAware ADS-B
Wed 06:14:13 PM 44.3590 -84.8060 93° East 518 596 39,000  Level FlightAware ADS-B
Wed 06:14:50 PM 44.3550 -84.6780 92° East 518 596 39,000  Level FlightAware ADS-B
Wed 06:15:22 PM 44.3520 -84.5720 92° East 517 595 39,000  Level FlightAware ADS-B
Wed 06:15:57 PM 44.3480 -84.4590 93° East 517 595 39,000  Level FlightAware ADS-B
Wed 06:16:34 PM 44.3440 -84.3340 93° East 515 593 39,000  Level FlightAware ADS-B
Wed 06:17:06 PM 44.3400 -84.2240 93° East 515 593 39,000  Level FlightAware ADS-B
Wed 06:17:43 PM 44.3350 -84.1030 93° East 515 593 39,000  Level FlightAware ADS-B
Wed 06:18:20 PM 44.3300 -83.9830 93° East 514 592 39,000  Level FlightAware ADS-B
Wed 06:18:52 PM 44.3260 -83.8740 93° East 514 592 39,000  Level FlightAware ADS-B
Wed 06:19:27 PM 44.3210 -83.7580 93° East 515 593 39,000  Level FlightAware ADS-B
Wed 06:20:03 PM 44.3160 -83.6390 93° East 515 593 39,000  Level FlightAware ADS-B
Wed 06:20:38 PM 44.3110 -83.5260 93° East 515 593 39,000  Level FlightAware ADS-B
Wed 06:21:09 PM 44.3070 -83.4240 93° East 514 592 39,000  Level FlightAware ADS-B
Wed 06:21:45 PM 44.3010 -83.3020 94° East 514 592 39,000  Level FlightAware ADS-B
Wed 06:22:22 PM 44.2960 -83.1840 93° East 514 592 39,000  Level FlightAware ADS-B
Wed 06:22:57 PM 44.2900 -83.0650 94° East 514 592 39,000  Level FlightAware ADS-B
Wed 06:23:33 PM 44.2850 -82.9480 93° East 514 592 39,000  Level FlightAware ADS-B
Wed 06:24:05 PM 44.2790 -82.8410 94° East 515 593 39,000  Level FlightAware ADS-B
Wed 06:24:42 PM 44.2730 -82.7200 94° East 515 593 39,000  Level FlightAware ADS-B
Wed 06:25:16 PM 44.2690 -82.6280 93° East 516 594 39,000  Level FlightAware ADS-B
Wed 06:25:54 PM 44.2610 -82.4800 94° East 516 594 39,000  Level FlightAware ADS-B
Wed 06:26:31 PM 44.2550 -82.3650 94° East 516 594 39,000  Level FlightAware ADS-B
Wed 06:27:11 PM 44.2420 -82.2340 98° East 512 589 39,000  Level FlightAware ADS-B
Wed 06:27:46 PM 44.2220 -82.1280 105° East 510 587 39,000  Level FlightAware ADS-B
Wed 06:28:16 PM 44.2080 -82.0310 101° East 514 592 39,000  Level FlightAware ADS-B
Wed 06:28:56 PM 44.1970 -81.8920 96° East 517 595 39,000  Level FlightAware ADS-B
Wed 06:29:26 PM 44.1900 -81.7980 96° East 516 594 39,000  Level FlightAware ADS-B
Wed 06:30:06 PM 44.1800 -81.6640 96° East 516 594 39,000  Level FlightAware ADS-B
Wed 06:30:36 PM 44.1730 -81.5650 96° East 516 594 39,000  Level FlightAware ADS-B
Wed 06:31:16 PM 44.1640 -81.4330 95° East 515 593 39,000  Level FlightAware ADS-B
Wed 06:31:51 PM 44.1560 -81.3160 95° East 514 592 39,000  Level FlightAware ADS-B
Wed 06:32:21 PM 44.1490 -81.2190 96° East 513 590 39,000  Level FlightAware ADS-B
Wed 06:32:56 PM 44.1410 -81.1010 95° East 512 589 39,000  Level FlightAware ADS-B
Wed 06:33:36 PM 44.1310 -80.9720 96° East 510 587 39,000  Level FlightAware ADS-B
Wed 06:34:11 PM 44.1230 -80.8590 96° East 507 583 39,000  Level FlightAware ADS-B
Wed 06:34:41 PM 44.1160 -80.7620 96° East 502 578 39,000  Level FlightAware ADS-B
Wed 06:35:16 PM 44.1070 -80.6500 96° East 499 574 39,000  Level FlightAware ADS-B
Wed 06:35:56 PM 44.0980 -80.5240 96° East 494 568 39,000  Level FlightAware ADS-B
Wed 06:36:26 PM 44.0900 -80.4300 97° East 492 566 39,000  Level FlightAware ADS-B
Wed 06:37:06 PM 44.0800 -80.3040 96° East 491 565 39,000  Level FlightAware ADS-B
Wed 06:37:41 PM 44.0720 -80.1950 96° East 493 567 39,000  Level FlightAware ADS-B
Wed 06:38:11 PM 44.0640 -80.1000 97° East 494 568 39,000  Level FlightAware ADS-B
Wed 06:38:51 PM 44.0540 -79.9780 96° East 497 572 39,000  Level FlightAware ADS-B
Wed 06:39:26 PM 44.0450 -79.8690 97° East 498 573 39,000  Level FlightAware ADS-B
Wed 06:40:06 PM 44.0340 -79.7350 96° East 501 577 39,000  Level FlightAware ADS-B
Wed 06:40:41 PM 44.0240 -79.6250 97° East 501 577 39,000  Level FlightAware ADS-B
Wed 06:41:16 PM 44.0150 -79.5120 96° East 501 577 39,000  Level FlightAware ADS-B
Wed 06:41:51 PM 44.0050 -79.4040 97° East 499 574 39,000  Level FlightAware ADS-B
Wed 06:42:26 PM 43.9950 -79.2900 97° East 497 572 39,000  Level FlightAware ADS-B
Wed 06:43:01 PM 43.9850 -79.1790 97° East 495 570 39,000  Level FlightAware ADS-B
Wed 06:43:36 PM 43.9750 -79.0720 97° East 493 567 39,000  Level FlightAware ADS-B
Wed 06:44:11 PM 43.9650 -78.9650 97° East 492 566 39,000  Level FlightAware ADS-B
Wed 06:44:41 PM 43.9550 -78.8660 98° East 490 564 39,000  Level FlightAware ADS-B
Wed 06:45:21 PM 43.9440 -78.7480 97° East 488 562 39,000  Level FlightAware ADS-B
Wed 06:45:56 PM 43.9330 -78.6360 98° East 487 560 39,000  Level FlightAware ADS-B
Wed 06:46:31 PM 43.9230 -78.5320 98° East 487 560 39,000  Level FlightAware ADS-B
Wed 06:47:06 PM 43.9120 -78.4200 98° East 487 560 39,000  Level FlightAware ADS-B
Wed 06:47:41 PM 43.9010 -78.3090 98° East 486 559 39,000  Level FlightAware ADS-B
Wed 06:48:11 PM 43.8930 -78.2240 97° East 483 556 39,000  Level FlightAware ADS-B
Wed 06:48:51 PM 43.8810 -78.1050 98° East 483 556 39,000  Level FlightAware ADS-B
Wed 06:49:26 PM 43.8690 -77.9900 98° East 484 557 39,000  Level FlightAware ADS-B
Wed 06:50:01 PM 43.8580 -77.8810 98° East 486 559 39,000  Level FlightAware ADS-B
Wed 06:50:36 PM 43.8470 -77.7780 98° East 486 559 39,000  Level FlightAware ADS-B
Wed 06:51:11 PM 43.8350 -77.6640 98° East 487 560 39,000  Level FlightAware ADS-B
Wed 06:51:46 PM 43.8240 -77.5590 98° East 488 562 39,000  Level FlightAware ADS-B
Wed 06:52:21 PM 43.8130 -77.4500 98° East 489 563 39,000  Level FlightAware ADS-B
Wed 06:52:56 PM 43.8010 -77.3420 99° East 491 565 39,000  Level FlightAware ADS-B
Wed 06:53:31 PM 43.7890 -77.2370 99° East 493 567 39,000  Level FlightAware ADS-B
Wed 06:54:06 PM 43.7770 -77.1240 98° East 496 571 39,000  Level FlightAware ADS-B
Wed 06:54:41 PM 43.7650 -77.0130 98° East 498 573 39,000  Level FlightAware ADS-B
Wed 06:55:16 PM 43.7520 -76.9030 99° East 500 575 39,000  Level FlightAware ADS-B
Wed 06:55:51 PM 43.7400 -76.8000 99° East 497 572 39,000  Level FlightAware ADS-B
Wed 06:56:26 PM 43.7080 -76.6950 113° Southeast 471 542 39,000  Level FlightAware ADS-B
Wed 06:56:41 PM 43.6870 -76.6610 130° Southeast 461 531 39,000  Level FlightAware ADS-B
Wed 06:57:16 PM 43.6370 -76.5930 135° Southeast 457 526 39,000  Level FlightAware ADS-B
Wed 06:57:51 PM 43.5780 -76.5270 141° Southeast 451 519 39,000  Level FlightAware ADS-B
Wed 06:58:26 PM 43.5160 -76.4730 148° Southeast 446 513 39,000  Level FlightAware ADS-B
Wed 06:59:06 PM 43.4480 -76.4180 150° Southeast 445 512 39,000  Level FlightAware ADS-B
Wed 06:59:41 PM 43.3840 -76.3660 149° Southeast 445 512 39,000  Level FlightAware ADS-B
Wed 07:00:16 PM 43.3240 -76.3180 150° Southeast 445 512 39,000  Level FlightAware ADS-B
Wed 07:00:52 PM 43.2620 -76.2670 149° Southeast 446 513 39,000  Level FlightAware ADS-B
Wed 07:01:26 PM 43.2000 -76.2170 150° Southeast 446 513 39,000  Level FlightAware ADS-B
Wed 07:02:11 PM 43.1170 -76.1500 149° Southeast 447 514 39,000  Level FlightAware ADS-B
Wed 07:02:41 PM 43.0640 -76.1070 149° Southeast 448 516 39,000  Level FlightAware ADS-B
Wed 07:03:21 PM 42.9940 -76.0510 150° Southeast 446 513 39,000  Level FlightAware ADS-B
Wed 07:03:51 PM 42.9430 -76.0100 150° Southeast 444 511 39,000  Level FlightAware ADS-B
Wed 07:04:26 PM 42.8790 -75.9580 149° Southeast 442 509 39,000 -73 Level FlightAware ADS-B
Wed 07:05:13 PM 42.7910 -75.8880 150° Southeast 440 506 38,900 -825 Descending FlightAware ADS-B
Wed 07:05:46 PM 42.7330 -75.8430 150° Southeast 446 513 37,900 -1,662 Descending FlightAware ADS-B
Wed 07:06:18 PM 42.6700 -75.8130 161° South 447 514 37,100 -1,521 Descending FlightAware ADS-B
Wed 07:06:57 PM 42.5920 -75.7800 163° South 454 522 36,100 -1,342 Descending FlightAware ADS-B
Wed 07:07:34 PM 42.5180 -75.7570 167° South 450 518 35,400 -1,147 Descending FlightAware ADS-B
Wed 07:08:05 PM 42.4540 -75.7490 175° South 451 519 34,800 -1,412 Descending FlightAware ADS-B
Wed 07:08:42 PM 42.3770 -75.7430 177° South 456 525 33,800 -1,583 Descending FlightAware ADS-B
Wed 07:09:17 PM 42.3030 -75.7390 178° South 460 529 32,900 -1,606 Descending FlightAware ADS-B
Wed 07:09:53 PM 42.2250 -75.7350 178° South 467 537 31,900 -1,652 Descending FlightAware ADS-B
Wed 07:10:26 PM 42.1520 -75.7320 178° South 473 544 31,000 -1,304 Descending FlightAware ADS-B
Wed 07:11:02 PM 42.0780 -75.7280 178° South 468 539 30,400 -845 Descending FlightAware ADS-B
Wed 07:11:37 PM 41.9990 -75.7180 175° South 463 533 30,000 -783 Descending FlightAware ADS-B
Wed 07:12:11 PM 41.9300 -75.6880 162° South 460 529 29,500 -857 Descending FlightAware ADS-B
Wed 07:12:47 PM 41.8610 -75.6460 156° South 458 527 29,000 -857 Descending FlightAware ADS-B
Wed 07:13:21 PM 41.7960 -75.6000 152° Southeast 457 526 28,500 -870 Descending FlightAware ADS-B
Wed 07:13:56 PM 41.7340 -75.5570 153° Southeast 458 527 28,000 -1,200 Descending FlightAware ADS-B
Wed 07:14:31 PM 41.6660 -75.5080 152° Southeast 458 527 27,100 -1,500 Descending FlightAware ADS-B
Wed 07:15:08 PM 41.6010 -75.4520 147° Southeast 455 524 26,200 -1,292 Descending FlightAware ADS-B
Wed 07:15:36 PM 41.5480 -75.4170 154° Southeast 441 507 25,700 -1,184 Descending FlightAware ADS-B
Wed 07:16:24 PM 41.4570 -75.4130 178° South 416 479 24,700 -1,357 Descending FlightAware ADS-B
Wed 07:17:00 PM 41.3900 -75.4460 200° South 405 466 23,800 -1,352 Descending FlightAware ADS-B
Wed 07:17:35 PM 41.3320 -75.4820 205° Southwest 398 458 23,100 -706 Descending FlightAware ADS-B
Wed 07:18:08 PM 41.2790 -75.5190 208° Southwest 399 459 23,000 -90 Descending FlightAware ADS-B
Wed 07:18:42 PM 41.2260 -75.5610 211° Southwest 411 473 23,000  Level FlightAware ADS-B
Wed 07:19:25 PM 41.1540 -75.5940 199° South 417 480 23,000  Level FlightAware ADS-B
Wed 07:19:48 PM 41.1060 -75.5780 166° South 408 470 23,000  Level FlightAware ADS-B
Wed 07:20:03 PM 41.0820 -75.5570 147° Southeast 413 475 23,000  Level FlightAware ADS-B
Wed 07:20:15 PM 41.0640 -75.5320 134° Southeast 421 484 23,000  Level FlightAware ADS-B
Wed 07:20:51 PM 41.0370 -75.4470 113° Southeast 444 511 23,000  Level FlightAware ADS-B
Wed 07:21:21 PM 41.0290 -75.3620 97° East 461 531 23,000  Level FlightAware ADS-B
Wed 07:21:59 PM 41.0220 -75.2580 95° East 463 533 23,000  Level FlightAware ADS-B
Wed 07:22:37 PM 41.0160 -75.1540 94° East 460 529 23,000  Level FlightAware ADS-B
Wed 07:23:10 PM 41.0090 -75.0620 96° East 459 528 23,000  Level FlightAware ADS-B
Wed 07:23:51 PM 41.0020 -74.9540 95° East 462 532 23,000  Level FlightAware ADS-B
Wed 07:24:28 PM 40.9940 -74.8390 95° East 462 532 23,000  Level FlightAware ADS-B
Wed 07:25:01 PM 40.9830 -74.7450 99° East 460 529 23,000 -435 Level FlightAware ADS-B
Wed 07:25:37 PM 40.9720 -74.6480 99° East 455 524 22,500 -1,417 Descending FlightAware ADS-B
Wed 07:26:13 PM 40.9610 -74.5480 98° East 442 509 21,300 -2,113 Descending FlightAware ADS-B
Wed 07:26:48 PM 40.9510 -74.4590 98° East 432 497 20,000 -1,970 Descending FlightAware ADS-B
Wed 07:27:20 PM 40.9420 -74.3780 98° East 425 489 19,100 -845 Descending FlightAware ADS-B
Wed 07:27:59 PM 40.9300 -74.2730 99° East 424 488 19,000 -85 Descending FlightAware ADS-B
Wed 07:28:31 PM 40.9210 -74.1920 98° East 398 458 19,000  Level FlightAware ADS-B
Wed 07:28:47 PM 40.9150 -74.1560 102° East 371 427 19,000  Level FlightAware ADS-B
Wed 07:29:02 PM 40.9028 -74.1281 120° Southeast 344 396 19,000  Level FlightAware ADS-B
Wed 07:29:06 PM 40.8983 -74.1217 133° Southeast 339 390 19,000 -923 Level FlightAware ADS-B
Wed 07:29:15 PM 40.8885 -74.1116 142° Southeast 330 380 18,800 -1,385 Descending FlightAware ADS-B
Wed 07:29:19 PM 40.8832 -74.1078 152° Southeast 326 375 18,700 -1,636 Descending FlightAware ADS-B
Wed 07:29:26 PM 40.8735 -74.1025 158° South 320 368 18,500 -2,083 Descending FlightAware ADS-B
Wed 07:30:31 PM 40.7810 -74.0720 166° South 308 354 16,200 -1,724 Descending FlightAware ADS-B
Wed 07:30:53 PM 40.7670 -74.0671 165° South 309 356 16,000 -588 Descending FlightAware ADS-B
Wed 07:31:22 PM 40.7102 -74.0477 165° South 306 352 15,700 -732 Descending FlightAware ADS-B
Wed 07:31:34 PM 40.6952 -74.0389 156° South 305 351 15,500 -1,286 Descending FlightAware ADS-B
Wed 07:32:04 PM 40.6580 -74.0200 159° South 297 342 14,800 -1,475 Descending FlightAware ADS-B
Wed 07:32:35 PM 40.6160 -74.0050 165° South 294 338 14,000 -1,433 Descending FlightAware ADS-B
Wed 07:33:11 PM 40.5680 -73.9890 166° South 293 337 13,200 -917 Descending FlightAware ADS-B
Wed 07:33:47 PM 40.5240 -73.9730 165° South 262 302 12,900 -609 Descending FlightAware ADS-B
Wed 07:34:20 PM 40.4870 -73.9610 166° South 238 274 12,500 -1,130 Descending FlightAware ADS-B
Wed 07:34:56 PM 40.4500 -73.9460 163° South 235 270 11,600 -1,500 Descending FlightAware ADS-B
Wed 07:35:08 PM 40.4400 -73.9350 140° Southeast 237 273 11,300 -1,714 Descending FlightAware ADS-B
Wed 07:35:45 PM 40.4170 -73.8900 124° Southeast 237 273 10,200 -1,700 Descending FlightAware ADS-B
Wed 07:36:08 PM 40.4040 -73.8630 122° Southeast 235 270 9,600 -1,714 Descending FlightAware ADS-B
Wed 07:36:20 PM 40.3970 -73.8480 121° Southeast 236 272 9,200 -1,800 Descending FlightAware ADS-B
Wed 07:36:28 PM 40.3920 -73.8380 123° Southeast 238 274 9,000 -1,765 Descending FlightAware ADS-B
Wed 07:36:37 PM 40.3900 -73.8250 101° East 243 280 8,700 -1,929 Descending FlightAware ADS-B
Wed 07:36:56 PM 40.3880 -73.7970 95° East 245 282 8,100 -1,800 Descending FlightAware ADS-B
Wed 07:37:17 PM 40.3860 -73.7660 95° East 246 283 7,500 -1,650 Descending FlightAware ADS-B
Wed 07:37:36 PM 40.3860 -73.7380 90° East 248 285 7,000 -1,500 Descending FlightAware ADS-B
Wed 07:37:53 PM 40.3900 -73.7130 78° East 247 284 6,600 -1,455 Descending FlightAware ADS-B
Wed 07:38:09 PM 40.3950 -73.6900 74° East 246 283 6,200 -1,622 Descending FlightAware ADS-B
Wed 07:38:30 PM 40.4020 -73.6610 72° East 246 283 5,600 -1,674 Descending FlightAware ADS-B
Wed 07:38:52 PM 40.4090 -73.6290 74° East 248 285 5,000 -1,304 Descending FlightAware ADS-B
Wed 07:39:16 PM 40.4160 -73.5940 75° East 248 285 4,600 -938 Descending FlightAware ADS-B
Wed 07:39:24 PM 40.4200 -73.5840 62° Northeast 250 288 4,500 -1,000 Descending FlightAware ADS-B
Wed 07:39:28 PM 40.4220 -73.5790 62° Northeast 250 288 4,400 -900 Descending FlightAware ADS-B
Wed 07:39:44 PM 40.4350 -73.5650 39° Northeast 245 282 4,200 -692 Descending FlightAware ADS-B
Wed 07:39:54 PM 40.4470 -73.5570 27° Northeast 243 280 4,100 -486 Descending FlightAware ADS-B
Wed 07:40:21 PM 40.4720 -73.5390 29° Northeast 232 267 3,900 -308 Descending FlightAware ADS-B
Wed 07:40:33 PM 40.4850 -73.5300 28° Northeast 220 253 3,900  Level FlightAware ADS-B
Wed 07:40:53 PM 40.5030 -73.5170 29° Northeast 219 252 3,900  Level FlightAware ADS-B
Wed 07:41:17 PM 40.5240 -73.5020 28° Northeast 219 252 3,900  Level FlightAware ADS-B
Wed 07:41:37 PM 40.5410 -73.4890 30° Northeast 218 251 3,900  Level FlightAware ADS-B
Wed 07:41:57 PM 40.5600 -73.4760 27° Northeast 219 252 3,900  Level FlightAware ADS-B
Wed 07:42:10 PM 40.5700 -73.4690 28° Northeast 218 251 3,900  Level FlightAware ADS-B
Wed 07:42:34 PM 40.5910 -73.4530 30° Northeast 216 249 3,900  Level FlightAware ADS-B
Wed 07:42:54 PM 40.6090 -73.4390 31° Northeast 218 251 3,900  Level FlightAware ADS-B
Wed 07:43:08 PM 40.6210 -73.4300 30° Northeast 217 250 3,900  Level FlightAware ADS-B
Wed 07:43:28 PM 40.6390 -73.4170 29° Northeast 217 250 3,900  Level FlightAware ADS-B
Wed 07:43:44 PM 40.6520 -73.4070 30° Northeast 217 250 3,900  Level FlightAware ADS-B
Wed 07:44:04 PM 40.6700 -73.3940 29° Northeast 218 251 3,900  Level FlightAware ADS-B
Wed 07:44:24 PM 40.6880 -73.3830 25° Northeast 213 245 3,900  Level FlightAware ADS-B
Wed 07:44:28 PM 40.6920 -73.3830 360° North 211 243 3,900  Level FlightAware ADS-B
Wed 07:44:48 PM 40.7100 -73.3890 346° North 207 238 3,900  Level FlightAware ADS-B
Wed 07:45:06 PM 40.7270 -73.3960 343° North 207 238 3,900  Level FlightAware ADS-B
Wed 07:45:26 PM 40.7450 -73.4050 339° North 198 228 3,900  Level FlightAware ADS-B
Wed 07:45:54 PM 40.7690 -73.4150 342° North 198 228 3,900  Level FlightAware ADS-B
Wed 07:46:09 PM 40.7800 -73.4200 341° North 199 229 3,900  Level FlightAware ADS-B
Wed 07:46:29 PM 40.7990 -73.4280 342° North 199 229 3,900  Level FlightAware ADS-B
Wed 07:46:44 PM 40.8120 -73.4340 341° North 200 230 3,900  Level FlightAware ADS-B
Wed 07:47:09 PM 40.8320 -73.4420 343° North 200 230 3,900 -125 Level FlightAware ADS-B
Wed 07:47:32 PM 40.8550 -73.4520 342° North 193 222 3,800 -600 Descending FlightAware ADS-B
Wed 07:47:49 PM 40.8690 -73.4580 342° North 193 222 3,500 -889 Descending FlightAware ADS-B
Wed 07:47:59 PM 40.8760 -73.4660 319° Northwest 178 205 3,400 -667 Descending FlightAware ADS-B
Wed 07:48:07 PM 40.8800 -73.4730 307° West 173 199 3,300 -900 Descending FlightAware ADS-B
Wed 07:48:19 PM 40.8840 -73.4840 296° West 171 197 3,100 -973 Descending FlightAware ADS-B
Wed 07:48:44 PM 40.8870 -73.5050 281° West 187 215 2,700 -840 Descending FlightAware ADS-B
Wed 07:49:09 PM 40.8790 -73.5240 241° Southwest 161 185 2,400 -894 Descending FlightAware ADS-B
Wed 07:49:31 PM 40.8680 -73.5450 235° Southwest 158 182 2,000 -462 Descending FlightAware ADS-B
Wed 07:50:01 PM 40.8570 -73.5670 237° Southwest 158 182 2,000 -158 Level FlightAware ADS-B
Wed 07:50:09 PM 40.8530 -73.5750 237° Southwest 159 183 1,900 -167 Descending FlightAware ADS-B
Wed 07:50:37 PM 40.8430 -73.5940 235° Southwest 159 183 1,900  Level FlightAware ADS-B
Wed 07:50:40 PM 40.8370 -73.5990 212° Southwest 159 183 1,900  Level FlightAware ADS-B
Wed 07:51:00 PM 40.8270 -73.6110 222° Southwest 160 184 1,900  Level FlightAware ADS-B
Wed 07:51:38 PM 40.8020 -73.6330 214° Southwest 162 186 1,900  Level FlightAware ADS-B
Wed 07:51:53 PM 40.7920 -73.6400 208° Southwest 161 185 1,900  Level FlightAware ADS-B
Wed 07:52:09 PM 40.7810 -73.6480 209° Southwest 160 184 1,900  Level FlightAware ADS-B
Wed 07:52:26 PM 40.7710 -73.6570 214° Southwest 161 185 1,900  Level FlightAware ADS-B
Wed 07:52:49 PM 40.7560 -73.6680 209° Southwest 159 183 1,900  Level FlightAware ADS-B
Wed 07:53:10 PM 40.7430 -73.6780 210° Southwest 160 184 1,900 -146 Level FlightAware ADS-B
Wed 07:53:30 PM 40.7310 -73.6880 212° Southwest 160 184 1,800 -450 Descending FlightAware ADS-B
Wed 07:53:50 PM 40.7180 -73.6980 210° Southwest 144 166 1,600 -818 Descending FlightAware ADS-B
Wed 07:54:14 PM 40.7050 -73.7080 210° Southwest 126 145 1,200 -857 Descending FlightAware ADS-B
Wed 07:54:32 PM 40.6970 -73.7150 214° Southwest 118 136 1,000 -563 Descending FlightAware ADS-B
Wed 07:54:46 PM 40.6900 -73.7200 208° Southwest 120 138 900 -514 Descending FlightAware ADS-B
Wed 07:55:07 PM 40.6800 -73.7280 211° Southwest 120 138 700 -545 Descending FlightAware ADS-B
Wed 07:55:30 PM 40.6690 -73.7370 212° Southwest 124 143 500 -514 Descending FlightAware ADS-B
Wed 07:55:42 PM 40.6630 -73.7410 207° Southwest 122 140 400 -750 Descending FlightAware ADS-B
Wed 07:56:02 PM 40.6530 -73.7490 211° Southwest 125 144 100 -900 Descending FlightAware ADS-B
Wed 07:56:27 PM 40.6410 -73.7580 210° Southwest 121 139 -240 Descending FlightAware ADS-B

Login

Don't have an account? Register now (free) for customized features, flight alerts, and more!